Time;durP1;ratioP1;P1;durP2;ratioP2;P2;SDS_P1;SDS_P2;PMS_P1;PMS_P2;Temp;Humidity;BMP_temperature;BMP_pressure;BME280_temperature;BME280_humidity;BME280_pressure;Samples;Min_cycle;Max_cycle;Signal;HPM_P1;HPM_P2
2022/11/11 00:00:12;;;;;;;;;;;28.70;91.80;;;;;;5064148;28;19963;-46
2022/11/11 00:02:38;;;;;;;;;;;28.80;91.80;;;;;;5063733;28;19904;-44
2022/11/11 00:05:04;;;;;;;;;;;28.70;91.80;;;;;;5063906;28;19904;-45
2022/11/11 00:07:31;;;;;;;;;;;28.70;91.70;;;;;;5066937;28;19975;-46
2022/11/11 00:09:57;;;;;;;;;;;28.70;91.70;;;;;;5067862;28;19944;-48
2022/11/11 00:12:23;;;;;;;;;;;28.70;91.70;;;;;;5067752;28;19972;-44
2022/11/11 00:14:49;;;;;;;;;;;28.70;91.70;;;;;;5067710;28;19912;-46
2022/11/11 00:25:28;;;;;;;;;;;28.60;91.60;;;;;;5067662;28;19916;-45
2022/11/11 00:27:54;;;;;;;;;;;28.60;91.60;;;;;;5067638;28;19905;-49
2022/11/11 00:30:20;;;;;;;;;;;28.60;91.70;;;;;;5067384;28;19920;-47
2022/11/11 00:32:46;;;;;;;;;;;28.50;91.60;;;;;;5067689;28;20176;-47
2022/11/11 00:38:05;;;;;;;;;;;28.50;91.60;;;;;;5067610;28;20088;-45
2022/11/11 00:40:31;;;;;;;;;;;28.50;91.60;;;;;;5067119;28;19909;-49
2022/11/11 00:42:57;;;;;;;;;;;28.50;91.50;;;;;;5067269;28;19901;-46
2022/11/11 00:45:23;;;;;;;;;;;28.50;91.50;;;;;;5067072;28;19909;-44
2022/11/11 00:53:20;;;;;;;;;;;28.40;91.50;;;;;;5067335;28;19911;-50
2022/11/11 00:55:46;;;;;;;;;;;28.40;91.50;;;;;;5067438;28;19905;-44
2022/11/11 00:58:12;;;;;;;;;;;28.40;91.40;;;;;;5067648;28;20069;-50
2022/11/11 01:00:38;;;;;;;;;;;28.30;91.50;;;;;;5066925;28;19976;-45
2022/11/11 01:03:05;;;;;;;;;;;28.40;91.70;;;;;;5066791;28;19905;-44
2022/11/11 01:05:33;;;;;;;;;;;28.40;91.50;;;;;;5066832;28;19912;-54
2022/11/11 01:07:59;;;;;;;;;;;28.30;91.50;;;;;;5065615;28;19901;-44
2022/11/11 01:10:38;;;;;;;;;;;28.30;91.50;;;;;;5066586;28;19975;-53
2022/11/11 01:13:13;;;;;;;;;;;28.40;91.50;;;;;;5066934;28;19942;-45
2022/11/11 01:15:41;;;;;;;;;;;28.30;91.50;;;;;;5066578;28;19915;-44
2022/11/11 01:18:08;;;;;;;;;;;28.30;91.50;;;;;;5066294;28;19968;-43
2022/11/11 01:20:36;;;;;;;;;;;28.30;91.50;;;;;;5066488;28;19908;-48
2022/11/11 01:23:03;;;;;;;;;;;28.30;91.50;;;;;;5066824;28;19951;-45
2022/11/11 01:25:32;;;;;;;;;;;28.30;91.50;;;;;;5066496;28;19904;-50
2022/11/11 01:27:58;;;;;;;;;;;28.30;91.60;;;;;;5066355;28;19904;-47
2022/11/11 01:30:24;;;;;;;;;;;28.20;91.60;;;;;;5066322;28;19904;-50
2022/11/11 01:32:50;;;;;;;;;;;28.20;91.50;;;;;;5066545;28;19912;-43
2022/11/11 01:35:16;;;;;;;;;;;28.20;91.50;;;;;;5066169;28;19944;-45
2022/11/11 01:37:42;;;;;;;;;;;28.20;91.40;;;;;;5066427;28;19967;-43
2022/11/11 01:40:09;;;;;;;;;;;28.20;91.40;;;;;;5066230;28;19908;-46
2022/11/11 01:42:47;;;;;;;;;;;28.20;91.50;;;;;;5066372;28;19940;-48
2022/11/11 01:45:32;;;;;;;;;;;28.20;91.50;;;;;;5066067;28;20161;-43
2022/11/11 01:50:43;;;;;;;;;;;28.10;91.50;;;;;;5065925;28;19918;-43
2022/11/11 01:53:09;;;;;;;;;;;28.10;91.40;;;;;;5066143;28;19986;-45
2022/11/11 01:55:35;;;;;;;;;;;28.10;91.40;;;;;;5066420;28;19923;-44
2022/11/11 01:58:07;;;;;;;;;;;28.10;91.50;;;;;;5066131;28;19905;-48
2022/11/11 02:00:33;;;;;;;;;;;28.10;91.30;;;;;;5065777;28;19909;-42
2022/11/11 02:03:07;;;;;;;;;;;28.10;91.50;;;;;;5066127;28;19983;-44
2022/11/11 02:05:44;;;;;;;;;;;28.10;91.30;;;;;;5065855;28;19908;-45
2022/11/11 02:08:33;;;;;;;;;;;28.00;91.40;;;;;;5065934;28;20189;-45
2022/11/11 02:11:03;;;;;;;;;;;28.10;91.30;;;;;;5065744;28;19912;-46
2022/11/11 02:16:15;;;;;;;;;;;28.00;91.60;;;;;;5065667;28;19916;-43
2022/11/11 02:18:42;;;;;;;;;;;28.00;91.50;;;;;;5065854;28;19926;-43
2022/11/11 02:21:11;;;;;;;;;;;28.00;91.50;;;;;;5065427;28;19963;-47
2022/11/11 02:23:58;;;;;;;;;;;28.00;91.50;;;;;;5065854;28;19938;-43
2022/11/11 02:26:25;;;;;;;;;;;27.90;91.70;;;;;;5065385;28;19908;-43
2022/11/11 02:28:52;;;;;;;;;;;27.90;91.80;;;;;;5065334;28;20189;-44
2022/11/11 02:31:18;;;;;;;;;;;27.90;91.90;;;;;;5063385;28;19908;-47
2022/11/11 02:33:44;;;;;;;;;;;27.90;92.00;;;;;;5065211;28;19911;-45
2022/11/11 02:36:14;;;;;;;;;;;27.90;92.00;;;;;;5065140;28;19908;-45
2022/11/11 02:38:40;;;;;;;;;;;27.90;92.00;;;;;;5065478;28;19905;-48
2022/11/11 02:43:53;;;;;;;;;;;27.90;92.00;;;;;;5065395;28;19943;-43
2022/11/11 02:46:19;;;;;;;;;;;27.80;92.20;;;;;;5065070;28;19908;-47
2022/11/11 02:48:45;;;;;;;;;;;27.80;92.30;;;;;;5065280;28;19936;-44
2022/11/11 02:51:11;;;;;;;;;;;27.80;92.20;;;;;;5064803;28;20097;-43
2022/11/11 02:53:37;;;;;;;;;;;27.80;92.20;;;;;;5065287;28;20088;-44
2022/11/11 02:56:04;;;;;;;;;;;27.80;92.20;;;;;;5064901;28;19909;-45
2022/11/11 02:58:30;;;;;;;;;;;27.80;92.30;;;;;;5065036;28;19936;-46
2022/11/11 03:00:56;;;;;;;;;;;27.80;92.20;;;;;;5064861;28;19915;-55
2022/11/11 03:03:22;;;;;;;;;;;27.80;92.10;;;;;;5064929;28;20175;-45
2022/11/11 03:05:48;;;;;;;;;;;27.80;92.10;;;;;;5064499;28;19946;-49
2022/11/11 03:08:15;;;;;;;;;;;27.70;92.00;;;;;;5064814;28;20273;-45
2022/11/11 03:10:41;;;;;;;;;;;27.70;91.80;;;;;;5064513;28;19912;-44
2022/11/11 03:13:07;;;;;;;;;;;27.70;91.90;;;;;;5064783;28;20254;-42
2022/11/11 03:15:33;;;;;;;;;;;27.70;91.90;;;;;;5064539;28;20197;-46
2022/11/11 03:17:59;;;;;;;;;;;27.70;91.80;;;;;;5064275;28;20104;-45
2022/11/11 03:23:14;;;;;;;;;;;27.70;91.80;;;;;;5064738;28;20192;-48
2022/11/11 03:25:41;;;;;;;;;;;27.60;91.80;;;;;;5064308;28;19909;-43
2022/11/11 03:28:12;;;;;;;;;;;27.70;91.80;;;;;;5064432;28;19911;-50
2022/11/11 03:30:39;;;;;;;;;;;27.60;91.70;;;;;;5063588;28;19956;-43
2022/11/11 03:33:06;;;;;;;;;;;27.60;91.60;;;;;;5064724;28;19923;-49
2022/11/11 03:35:36;;;;;;;;;;;27.60;91.50;;;;;;5064396;28;19909;-43
2022/11/11 03:38:23;;;;;;;;;;;27.60;91.40;;;;;;5064372;28;19980;-43
2022/11/11 03:40:51;;;;;;;;;;;27.60;91.40;;;;;;5063853;28;19909;-45
2022/11/11 03:43:18;;;;;;;;;;;27.50;91.40;;;;;;5064545;28;19912;-43
2022/11/11 03:45:44;;;;;;;;;;;27.50;91.40;;;;;;5063982;28;19909;-43
2022/11/11 03:48:11;;;;;;;;;;;27.60;91.40;;;;;;5064190;28;19904;-44
2022/11/11 03:50:37;;;;;;;;;;;27.60;91.40;;;;;;5063944;28;19983;-43
2022/11/11 03:53:04;;;;;;;;;;;27.60;91.40;;;;;;5064288;28;20201;-46
2022/11/11 03:55:30;;;;;;;;;;;27.50;91.30;;;;;;5063727;28;19905;-46
2022/11/11 03:57:56;;;;;;;;;;;27.50;91.30;;;;;;5063896;28;19905;-45
2022/11/11 04:00:23;;;;;;;;;;;27.50;91.30;;;;;;5064364;28;19911;-46
2022/11/11 04:11:11;;;;;;;;;;;27.50;91.50;;;;;;5064296;28;20119;-47
2022/11/11 04:16:22;;;;;;;;;;;27.40;91.60;;;;;;5063804;28;20235;-43
2022/11/11 04:21:44;;;;;;;;;;;27.40;91.80;;;;;;5063835;28;19947;-43
2022/11/11 04:27:00;;;;;;;;;;;27.30;92.00;;;;;;5063629;28;19915;-41
2022/11/11 04:29:29;;;;;;;;;;;27.30;92.20;;;;;;5063791;28;19919;-50
2022/11/11 04:34:41;;;;;;;;;;;27.30;92.30;;;;;;5063907;28;19908;-43
2022/11/11 04:37:07;;;;;;;;;;;27.20;92.40;;;;;;5063654;28;20106;-43
2022/11/11 04:42:18;;;;;;;;;;;27.20;92.50;;;;;;5063611;28;20164;-42
2022/11/11 04:47:28;;;;;;;;;;;27.20;92.60;;;;;;5063547;28;19915;-43
2022/11/11 04:49:54;;;;;;;;;;;27.10;92.60;;;;;;5063805;28;19909;-42
2022/11/11 04:52:26;;;;;;;;;;;27.10;92.70;;;;;;5063389;28;20140;-41
2022/11/11 04:57:41;;;;;;;;;;;27.00;92.90;;;;;;5066908;28;19912;-44
2022/11/11 05:00:09;;;;;;;;;;;27.00;92.90;;;;;;5067316;28;19904;-44
2022/11/11 05:05:20;;;;;;;;;;;27.00;92.90;;;;;;5067221;28;19954;-45
2022/11/11 05:10:31;;;;;;;;;;;27.00;93.00;;;;;;5067130;28;20208;-45
2022/11/11 05:21:19;;;;;;;;;;;27.00;93.00;;;;;;5066633;28;19912;-48
2022/11/11 05:21:20;;;;;;;;;;;26.90;93.10;;;;;;5066600;28;19951;-44
2022/11/11 05:26:31;;;;;;;;;;;26.90;93.10;;;;;;5066476;28;19912;-45
2022/11/11 05:28:58;;;;;;;;;;;26.90;93.10;;;;;;5066149;28;19913;-42
2022/11/11 05:31:24;;;;;;;;;;;26.90;93.10;;;;;;5066496;28;19935;-46
2022/11/11 05:33:50;;;;;;;;;;;26.80;93.10;;;;;;5066416;28;20105;-44
2022/11/11 05:36:16;;;;;;;;;;;26.80;93.10;;;;;;5066278;28;19908;-49
2022/11/11 05:38:42;;;;;;;;;;;26.70;93.00;;;;;;5066084;28;19980;-43
2022/11/11 05:41:09;;;;;;;;;;;26.70;93.20;;;;;;5066222;28;19905;-43
2022/11/11 05:43:35;;;;;;;;;;;26.70;93.20;;;;;;5066362;28;19943;-48
2022/11/11 05:46:01;;;;;;;;;;;26.70;93.00;;;;;;5066518;28;19912;-43
2022/11/11 05:48:27;;;;;;;;;;;26.70;93.10;;;;;;5066211;28;19975;-45
2022/11/11 05:50:53;;;;;;;;;;;26.70;93.00;;;;;;5072352;28;19919;-45
2022/11/11 05:53:22;;;;;;;;;;;26.70;93.00;;;;;;5077764;28;19900;-45
2022/11/11 05:55:52;;;;;;;;;;;26.70;93.10;;;;;;5066862;28;19940;-50
2022/11/11 05:58:18;;;;;;;;;;;26.60;93.20;;;;;;5065868;28;20098;-50
2022/11/11 06:00:44;;;;;;;;;;;26.60;93.20;;;;;;5066247;28;20180;-49
2022/11/11 06:03:11;;;;;;;;;;;26.60;92.90;;;;;;5065838;28;19909;-44
2022/11/11 06:05:37;;;;;;;;;;;26.70;93.10;;;;;;5066051;28;19909;-53
2022/11/11 06:08:03;;;;;;;;;;;26.60;93.10;;;;;;5065438;28;19911;-48
2022/11/11 06:10:29;;;;;;;;;;;26.70;93.10;;;;;;5065954;28;19920;-45
2022/11/11 06:13:08;;;;;;;;;;;26.70;93.30;;;;;;5065558;28;19976;-45
2022/11/11 06:15:35;;;;;;;;;;;26.70;93.30;;;;;;5065870;28;19923;-56
2022/11/11 06:18:02;;;;;;;;;;;26.70;93.20;;;;;;5065421;28;19901;-53
2022/11/11 06:20:28;;;;;;;;;;;26.70;93.30;;;;;;5066597;28;19908;-46
2022/11/11 06:22:57;;;;;;;;;;;26.60;93.30;;;;;;5076310;28;19909;-51
2022/11/11 06:28:12;;;;;;;;;;;26.60;93.30;;;;;;5085135;28;19946;-47
2022/11/11 06:30:39;;;;;;;;;;;26.60;93.40;;;;;;5085574;28;19955;-45
2022/11/11 06:33:08;;;;;;;;;;;26.60;93.40;;;;;;5085016;28;19911;-46
2022/11/11 06:35:38;;;;;;;;;;;26.60;93.40;;;;;;5085715;28;19911;-46
2022/11/11 06:38:05;;;;;;;;;;;26.60;93.50;;;;;;5085182;28;19905;-46
2022/11/11 06:40:32;;;;;;;;;;;26.60;93.60;;;;;;5085344;28;19916;-49
2022/11/11 06:42:58;;;;;;;;;;;26.60;93.70;;;;;;5085097;28;19901;-48
2022/11/11 06:45:26;;;;;;;;;;;26.60;93.70;;;;;;5084889;28;20185;-47
2022/11/11 06:47:52;;;;;;;;;;;26.60;93.90;;;;;;5084801;28;20197;-48
2022/11/11 06:50:18;;;;;;;;;;;26.60;93.90;;;;;;5085097;28;19916;-47
2022/11/11 06:52:45;;;;;;;;;;;26.50;93.80;;;;;;5084796;28;20190;-46
2022/11/11 06:55:11;;;;;;;;;;;26.50;93.80;;;;;;5085056;28;20084;-50
2022/11/11 06:57:37;;;;;;;;;;;26.40;93.90;;;;;;5084578;28;20190;-46
2022/11/11 07:00:04;;;;;;;;;;;26.40;94.00;;;;;;5085003;28;19976;-50
2022/11/11 07:02:30;;;;;;;;;;;26.30;93.90;;;;;;5084842;28;19972;-47
2022/11/11 07:04:56;;;;;;;;;;;26.40;94.00;;;;;;5084746;28;19943;-48
2022/11/11 07:07:22;;;;;;;;;;;26.50;93.80;;;;;;5084658;28;19900;-49
2022/11/11 07:09:48;;;;;;;;;;;26.50;93.60;;;;;;5082952;28;20247;-48
2022/11/11 07:12:15;;;;;;;;;;;26.50;93.60;;;;;;5071468;28;19907;-45
2022/11/11 07:14:41;;;;;;;;;;;26.50;93.80;;;;;;5080911;28;19912;-48
2022/11/11 07:17:07;;;;;;;;;;;26.50;93.60;;;;;;5071208;28;19908;-46
2022/11/11 07:19:33;;;;;;;;;;;26.60;93.70;;;;;;5084540;28;19971;-49
2022/11/11 07:21:59;;;;;;;;;;;26.50;93.50;;;;;;5100181;28;19935;-48
2022/11/11 07:24:25;;;;;;;;;;;26.60;93.40;;;;;;5084663;28;20111;-45
2022/11/11 07:26:53;;;;;;;;;;;26.50;93.40;;;;;;5084331;28;20078;-45
2022/11/11 07:29:43;;;;;;;;;;;26.60;93.60;;;;;;5084311;28;19961;-45
2022/11/11 07:32:09;;;;;;;;;;;26.50;93.50;;;;;;5084288;28;19935;-45
2022/11/11 07:34:35;;;;;;;;;;;26.60;93.40;;;;;;5084440;28;20089;-49
2022/11/11 07:37:02;;;;;;;;;;;26.50;93.30;;;;;;5084318;28;19904;-46
2022/11/11 07:39:28;;;;;;;;;;;26.60;93.30;;;;;;5084386;28;19927;-45
2022/11/11 07:41:54;;;;;;;;;;;26.60;93.30;;;;;;5084199;28;20100;-49
2022/11/11 07:44:20;;;;;;;;;;;26.60;92.90;;;;;;5084317;28;19946;-46
2022/11/11 07:46:46;;;;;;;;;;;26.60;92.90;;;;;;5084172;28;19911;-48
2022/11/11 07:49:12;;;;;;;;;;;26.60;92.70;;;;;;5084312;28;19909;-45
2022/11/11 07:51:38;;;;;;;;;;;26.60;92.60;;;;;;5084324;28;19904;-44
2022/11/11 07:54:04;;;;;;;;;;;26.60;92.60;;;;;;5084094;28;19908;-53
2022/11/11 07:56:31;;;;;;;;;;;26.50;92.50;;;;;;5083964;28;20223;-46
2022/11/11 07:58:57;;;;;;;;;;;26.60;92.50;;;;;;5083981;28;19943;-45
2022/11/11 08:01:23;;;;;;;;;;;26.60;92.50;;;;;;5082907;28;20131;-50
2022/11/11 08:03:49;;;;;;;;;;;26.50;92.60;;;;;;5083873;28;19900;-49
2022/11/11 08:06:16;;;;;;;;;;;26.50;92.50;;;;;;5083969;28;19904;-49
2022/11/11 08:08:42;;;;;;;;;;;26.50;92.50;;;;;;5083887;28;19954;-46
2022/11/11 08:11:08;;;;;;;;;;;26.50;92.80;;;;;;5083727;28;19908;-47
2022/11/11 08:13:40;;;;;;;;;;;26.50;92.60;;;;;;5084134;28;19908;-46
2022/11/11 08:16:07;;;;;;;;;;;26.50;92.80;;;;;;5083889;28;19915;-47
2022/11/11 08:18:34;;;;;;;;;;;26.50;92.70;;;;;;5083758;28;19904;-47
2022/11/11 08:21:01;;;;;;;;;;;26.50;92.70;;;;;;5084332;28;19931;-48
2022/11/11 08:23:33;;;;;;;;;;;26.50;92.60;;;;;;5083827;28;19904;-45
2022/11/11 08:25:59;;;;;;;;;;;26.50;92.50;;;;;;5084099;28;19931;-44
2022/11/11 08:28:26;;;;;;;;;;;26.50;92.80;;;;;;5084852;28;19947;-45
2022/11/11 08:30:52;;;;;;;;;;;26.50;92.90;;;;;;5087865;28;20188;-53
2022/11/11 08:33:18;;;;;;;;;;;26.50;93.00;;;;;;5087399;28;19901;-46
2022/11/11 08:35:44;;;;;;;;;;;26.40;93.00;;;;;;5087943;28;20101;-51
2022/11/11 08:38:12;;;;;;;;;;;26.40;93.20;;;;;;5087385;28;20096;-50
2022/11/11 08:40:38;;;;;;;;;;;26.50;93.20;;;;;;5087666;28;20069;-49
2022/11/11 08:43:04;;;;;;;;;;;26.50;93.20;;;;;;5087532;28;20018;-53
2022/11/11 08:45:30;;;;;;;;;;;26.40;93.40;;;;;;5087737;28;19962;-50
2022/11/11 08:47:56;;;;;;;;;;;26.50;93.30;;;;;;5087099;28;19940;-48
2022/11/11 08:50:23;;;;;;;;;;;26.50;93.40;;;;;;5087432;28;19915;-48
2022/11/11 08:52:50;;;;;;;;;;;26.50;93.60;;;;;;5087104;28;19908;-54
2022/11/11 08:55:17;;;;;;;;;;;26.40;93.70;;;;;;5087231;28;19916;-51
2022/11/11 08:57:43;;;;;;;;;;;26.50;93.80;;;;;;5087152;28;19943;-52
2022/11/11 09:00:10;;;;;;;;;;;26.50;93.60;;;;;;5087270;28;19986;-45
2022/11/11 09:02:36;;;;;;;;;;;26.50;93.50;;;;;;5086890;28;19901;-47
2022/11/11 09:05:02;;;;;;;;;;;26.50;93.40;;;;;;5087179;28;19908;-43
2022/11/11 09:07:29;;;;;;;;;;;26.50;93.30;;;;;;5086848;28;19904;-43
2022/11/11 09:09:55;;;;;;;;;;;26.60;93.20;;;;;;5086952;28;19912;-44
2022/11/11 09:12:21;;;;;;;;;;;26.50;93.20;;;;;;5086626;28;19904;-45
2022/11/11 09:14:48;;;;;;;;;;;26.60;93.20;;;;;;5086745;28;19904;-44
2022/11/11 09:17:15;;;;;;;;;;;26.60;93.30;;;;;;5087045;28;20222;-49
2022/11/11 09:19:41;;;;;;;;;;;26.60;93.30;;;;;;5075557;28;19983;-45
2022/11/11 09:22:07;;;;;;;;;;;26.60;93.40;;;;;;5085237;28;20002;-50
2022/11/11 09:24:33;;;;;;;;;;;26.60;93.40;;;;;;5086698;28;19908;-42
2022/11/11 09:26:59;;;;;;;;;;;26.60;93.50;;;;;;5086461;28;19900;-46
2022/11/11 09:29:25;;;;;;;;;;;26.60;93.60;;;;;;5086601;28;19923;-45
2022/11/11 09:31:51;;;;;;;;;;;26.60;93.60;;;;;;5086468;28;19911;-52
2022/11/11 09:34:18;;;;;;;;;;;26.60;93.60;;;;;;5086344;28;20176;-46
2022/11/11 09:36:44;;;;;;;;;;;26.60;93.70;;;;;;5086363;28;19947;-46
2022/11/11 09:39:10;;;;;;;;;;;26.60;93.80;;;;;;5085917;28;19916;-50
2022/11/11 09:41:55;;;;;;;;;;;26.60;93.80;;;;;;5086075;28;19907;-49
2022/11/11 09:44:21;;;;;;;;;;;26.60;93.90;;;;;;5086427;28;19908;-49
2022/11/11 09:46:50;;;;;;;;;;;26.60;93.90;;;;;;5086136;28;19900;-44
2022/11/11 09:49:19;;;;;;;;;;;26.60;93.90;;;;;;5086071;28;19913;-45
2022/11/11 09:51:52;;;;;;;;;;;26.50;93.90;;;;;;5086079;28;20100;-46
2022/11/11 09:54:23;;;;;;;;;;;26.60;94.00;;;;;;5085893;28;19931;-44
2022/11/11 09:56:49;;;;;;;;;;;26.60;94.10;;;;;;5085888;28;19900;-47
2022/11/11 09:59:25;;;;;;;;;;;26.50;94.10;;;;;;5085775;28;19930;-51
2022/11/11 10:01:58;;;;;;;;;;;26.60;94.20;;;;;;5085813;28;19912;-47
2022/11/11 10:04:31;;;;;;;;;;;26.60;94.20;;;;;;5085982;28;19908;-46
2022/11/11 10:07:02;;;;;;;;;;;26.60;94.20;;;;;;5085665;28;20185;-45
2022/11/11 10:09:40;;;;;;;;;;;26.50;94.30;;;;;;5085755;28;19919;-43
2022/11/11 10:12:10;;;;;;;;;;;26.50;94.30;;;;;;5081676;28;19904;-42
2022/11/11 10:14:38;;;;;;;;;;;26.50;94.30;;;;;;5076928;28;19908;-48
2022/11/11 10:17:22;;;;;;;;;;;26.50;94.30;;;;;;5085569;28;19904;-43
2022/11/11 10:19:52;;;;;;;;;;;26.50;94.20;;;;;;5074836;28;19905;-44
2022/11/11 10:22:19;;;;;;;;;;;26.50;94.20;;;;;;5065395;28;20154;-45
2022/11/11 10:24:51;;;;;;;;;;;26.50;94.40;;;;;;5065459;28;19916;-50
2022/11/11 10:27:19;;;;;;;;;;;26.50;94.20;;;;;;5065609;28;19911;-47
2022/11/11 10:29:45;;;;;;;;;;;26.50;94.20;;;;;;5065279;28;19980;-51
2022/11/11 10:32:20;;;;;;;;;;;26.50;94.20;;;;;;5065163;28;19905;-47
2022/11/11 10:34:46;;;;;;;;;;;26.50;94.20;;;;;;5065555;28;20204;-48
2022/11/11 10:37:23;;;;;;;;;;;26.50;94.20;;;;;;5065141;28;20124;-46
2022/11/11 10:40:01;;;;;;;;;;;26.50;94.20;;;;;;5065298;28;19983;-49
2022/11/11 10:42:27;;;;;;;;;;;26.50;94.20;;;;;;5065105;28;19932;-44
2022/11/11 10:44:57;;;;;;;;;;;26.50;94.20;;;;;;5064965;28;19912;-47
2022/11/11 10:47:41;;;;;;;;;;;26.40;94.10;;;;;;5065032;28;19907;-46
2022/11/11 10:50:14;;;;;;;;;;;26.50;94.10;;;;;;5064748;28;19913;-49
2022/11/11 10:52:43;;;;;;;;;;;26.40;94.10;;;;;;5064667;28;19935;-46
2022/11/11 10:55:12;;;;;;;;;;;26.40;94.10;;;;;;5065097;28;19909;-48
2022/11/11 10:57:38;;;;;;;;;;;26.40;94.10;;;;;;5065125;28;19971;-49
2022/11/11 11:00:07;;;;;;;;;;;26.50;94.10;;;;;;5065045;28;19915;-49
2022/11/11 11:02:33;;;;;;;;;;;26.40;94.20;;;;;;5064790;28;19901;-53
2022/11/11 11:05:02;;;;;;;;;;;26.50;94.40;;;;;;5065027;28;19916;-46
2022/11/11 11:07:33;;;;;;;;;;;26.50;94.10;;;;;;5064775;28;19901;-48
2022/11/11 11:10:02;;;;;;;;;;;26.40;93.90;;;;;;5064638;28;19979;-52
2022/11/11 11:12:46;;;;;;;;;;;26.40;94.00;;;;;;5064475;28;20204;-41
2022/11/11 11:15:17;;;;;;;;;;;26.40;94.00;;;;;;5064811;28;19983;-45
2022/11/11 11:17:53;;;;;;;;;;;26.40;93.90;;;;;;5063384;28;19907;-46
2022/11/11 11:20:19;;;;;;;;;;;26.40;93.90;;;;;;5061286;28;20199;-48
2022/11/11 11:22:50;;;;;;;;;;;26.50;94.10;;;;;;5064408;28;19900;-46
2022/11/11 11:25:17;;;;;;;;;;;26.50;93.90;;;;;;5064013;28;19909;-45
2022/11/11 11:27:44;;;;;;;;;;;26.50;93.90;;;;;;5064383;28;19904;-44
2022/11/11 11:30:12;;;;;;;;;;;26.50;93.90;;;;;;5062730;28;19917;-45
2022/11/11 11:32:41;;;;;;;;;;;26.50;94.00;;;;;;5069481;28;19905;-48
2022/11/11 11:35:07;;;;;;;;;;;26.50;94.20;;;;;;5060920;28;19909;-42
2022/11/11 11:37:48;;;;;;;;;;;26.50;94.10;;;;;;5051968;28;19912;-43
2022/11/11 11:40:14;;;;;;;;;;;26.50;94.00;;;;;;5044658;28;20085;-46
2022/11/11 11:42:43;;;;;;;;;;;26.50;94.00;;;;;;5044113;28;20203;-48
2022/11/11 11:45:15;;;;;;;;;;;26.60;94.00;;;;;;5044557;28;19955;-45
2022/11/11 11:47:51;;;;;;;;;;;26.60;94.00;;;;;;5043167;28;19952;-46
2022/11/11 11:50:26;;;;;;;;;;;26.60;93.90;;;;;;5042979;28;20142;-42
2022/11/11 11:53:11;;;;;;;;;;;26.60;93.80;;;;;;5043078;28;20193;-45
2022/11/11 11:55:41;;;;;;;;;;;26.60;93.80;;;;;;5043580;28;19951;-45
2022/11/11 11:58:13;;;;;;;;;;;26.60;93.80;;;;;;5043275;28;19905;-46
2022/11/11 12:00:53;;;;;;;;;;;26.60;93.80;;;;;;5056542;28;19905;-46
2022/11/11 12:03:39;;;;;;;;;;;26.60;93.80;;;;;;5064165;28;19912;-43
2022/11/11 12:06:05;;;;;;;;;;;26.60;93.70;;;;;;5056640;28;19909;-41
2022/11/11 12:08:31;;;;;;;;;;;26.70;93.80;;;;;;5048200;28;19950;-44
2022/11/11 12:11:04;;;;;;;;;;;26.70;93.80;;;;;;5059859;28;19948;-46
2022/11/11 12:13:34;;;;;;;;;;;26.70;93.80;;;;;;5047905;28;19943;-53
2022/11/11 12:16:26;;;;;;;;;;;26.70;93.80;;;;;;5047875;28;20252;-44
2022/11/11 12:18:52;;;;;;;;;;;26.70;93.80;;;;;;5046738;28;19967;-43
2022/11/11 12:21:21;;;;;;;;;;;26.80;93.80;;;;;;5047806;28;20105;-45
2022/11/11 12:23:59;;;;;;;;;;;26.80;93.70;;;;;;5047677;28;20097;-42
2022/11/11 12:26:25;;;;;;;;;;;26.80;93.70;;;;;;5046580;28;19905;-43
2022/11/11 12:28:51;;;;;;;;;;;26.80;93.70;;;;;;5047568;28;19920;-47
2022/11/11 12:31:23;;;;;;;;;;;26.80;93.70;;;;;;5059410;28;20000;-45
2022/11/11 12:34:01;;;;;;;;;;;26.90;93.70;;;;;;5065244;28;20101;-47
2022/11/11 12:36:47;;;;;;;;;;;26.90;93.60;;;;;;5056214;28;19908;-44
2022/11/11 12:39:16;;;;;;;;;;;26.90;93.60;;;;;;5047687;28;20096;-43
2022/11/11 12:41:47;;;;;;;;;;;26.90;93.60;;;;;;5052357;28;20285;-42
2022/11/11 12:44:13;;;;;;;;;;;27.00;93.60;;;;;;5062880;28;19912;-42
2022/11/11 12:46:45;;;;;;;;;;;27.00;93.50;;;;;;5058445;28;19904;-43
2022/11/11 12:49:14;;;;;;;;;;;27.00;93.50;;;;;;5061953;28;19917;-46
2022/11/11 12:51:46;;;;;;;;;;;27.00;93.50;;;;;;5062520;28;19912;-45
2022/11/11 12:54:16;;;;;;;;;;;27.10;93.50;;;;;;5063714;28;19980;-42
2022/11/11 12:56:59;;;;;;;;;;;27.10;93.50;;;;;;5067200;28;20247;-41
2022/11/11 12:59:44;;;;;;;;;;;27.20;93.60;;;;;;5062880;28;19947;-41
2022/11/11 13:02:10;;;;;;;;;;;27.20;93.50;;;;;;5058073;28;19913;-42
2022/11/11 13:04:55;;;;;;;;;;;27.20;93.50;;;;;;5056707;28;19944;-41
2022/11/11 13:07:41;;;;;;;;;;;27.30;93.40;;;;;;5055373;28;19904;-40
2022/11/11 13:10:10;;;;;;;;;;;27.30;93.30;;;;;;5047256;28;20105;-40
2022/11/11 13:12:46;;;;;;;;;;;27.30;93.40;;;;;;5046817;28;19911;-40
2022/11/11 13:15:20;;;;;;;;;;;27.40;93.50;;;;;;5045836;28;19912;-40
2022/11/11 13:17:47;;;;;;;;;;;27.40;93.40;;;;;;5052504;28;19911;-39
2022/11/11 13:20:37;;;;;;;;;;;27.50;93.40;;;;;;5058742;28;19924;-40
2022/11/11 13:23:07;;;;;;;;;;;27.50;93.40;;;;;;5064236;28;20078;-45
2022/11/11 13:25:34;;;;;;;;;;;27.50;93.10;;;;;;5067021;28;20295;-40
2022/11/11 13:28:27;;;;;;;;;;;27.60;92.90;;;;;;5066495;28;20096;-43
2022/11/11 13:30:53;;;;;;;;;;;27.60;92.40;;;;;;5058066;28;19924;-40
2022/11/11 13:33:24;;;;;;;;;;;27.70;92.60;;;;;;5066301;28;19900;-42
2022/11/11 13:35:55;;;;;;;;;;;27.70;91.90;;;;;;5058392;28;20097;-43
2022/11/11 13:38:24;;;;;;;;;;;27.70;92.00;;;;;;5046336;28;19908;-43
2022/11/11 13:40:53;;;;;;;;;;;27.70;91.50;;;;;;5046975;28;19909;-44
2022/11/11 13:43:21;;;;;;;;;;;27.80;91.20;;;;;;5046425;28;20093;-41
2022/11/11 13:45:52;;;;;;;;;;;27.80;91.50;;;;;;5046568;28;19909;-42
2022/11/11 13:48:37;;;;;;;;;;;27.80;91.40;;;;;;5046294;28;19908;-47
2022/11/11 13:51:12;;;;;;;;;;;27.90;91.30;;;;;;5058398;28;19935;-39
2022/11/11 13:53:38;;;;;;;;;;;27.90;91.60;;;;;;5053001;28;19908;-48
2022/11/11 13:56:06;;;;;;;;;;;27.90;91.90;;;;;;5060399;28;19982;-43
2022/11/11 13:58:34;;;;;;;;;;;28.00;91.50;;;;;;5046626;28;19912;-42
2022/11/11 14:01:03;;;;;;;;;;;28.10;91.50;;;;;;5046651;28;19913;-40
2022/11/11 14:03:36;;;;;;;;;;;28.10;91.20;;;;;;5045885;28;19905;-42
2022/11/11 14:06:14;;;;;;;;;;;28.10;91.30;;;;;;5046238;28;20321;-45
2022/11/11 14:08:47;;;;;;;;;;;28.10;91.30;;;;;;5045736;28;19975;-41
2022/11/11 14:11:26;;;;;;;;;;;28.10;91.20;;;;;;5045661;28;19959;-44
2022/11/11 14:13:53;;;;;;;;;;;28.20;91.20;;;;;;5045553;28;20082;-50
2022/11/11 14:16:36;;;;;;;;;;;28.20;90.50;;;;;;5057047;28;19989;-41
2022/11/11 14:19:17;;;;;;;;;;;28.30;90.70;;;;;;5045667;28;19984;-40
2022/11/11 14:21:54;;;;;;;;;;;28.20;91.10;;;;;;5045535;28;19904;-41
2022/11/11 14:24:29;;;;;;;;;;;28.30;90.60;;;;;;5045743;28;19913;-47
2022/11/11 14:26:57;;;;;;;;;;;28.30;90.80;;;;;;5045467;28;19905;-41
2022/11/11 14:29:26;;;;;;;;;;;28.30;90.80;;;;;;5045408;28;19949;-41
2022/11/11 14:32:21;;;;;;;;;;;28.30;90.30;;;;;;5055406;28;19905;-45
2022/11/11 14:34:47;;;;;;;;;;;28.30;90.60;;;;;;5045492;28;19976;-48
2022/11/11 14:37:41;;;;;;;;;;;28.30;90.80;;;;;;5065217;28;20165;-46
2022/11/11 14:40:23;;;;;;;;;;;28.30;90.60;;;;;;5065514;28;19920;-44
2022/11/11 14:42:50;;;;;;;;;;;28.30;89.60;;;;;;5058823;28;19986;-47
2022/11/11 14:45:22;;;;;;;;;;;28.30;90.50;;;;;;5057246;28;19908;-48
2022/11/11 14:47:49;;;;;;;;;;;28.30;90.70;;;;;;5063916;28;19905;-46
2022/11/11 14:50:31;;;;;;;;;;;28.30;90.70;;;;;;5064256;28;19912;-42
2022/11/11 14:52:58;;;;;;;;;;;28.30;90.50;;;;;;5064020;28;19911;-47
2022/11/11 14:55:25;;;;;;;;;;;28.30;90.70;;;;;;5065203;28;19908;-45
2022/11/11 14:57:51;;;;;;;;;;;28.30;90.70;;;;;;5058604;28;19909;-42
2022/11/11 15:00:22;;;;;;;;;;;28.30;90.50;;;;;;5053545;28;20193;-44
2022/11/11 15:02:51;;;;;;;;;;;28.40;90.50;;;;;;5044479;28;19936;-39
2022/11/11 15:05:20;;;;;;;;;;;28.40;90.20;;;;;;5044985;28;20216;-42
2022/11/11 15:07:57;;;;;;;;;;;28.40;90.70;;;;;;5044918;28;19975;-43
2022/11/11 15:10:35;;;;;;;;;;;28.40;90.10;;;;;;5045108;28;20070;-51
2022/11/11 15:13:25;;;;;;;;;;;28.40;90.40;;;;;;5044673;28;19905;-44
2022/11/11 15:15:57;;;;;;;;;;;28.40;90.40;;;;;;5045112;28;19909;-48
2022/11/11 15:18:52;;;;;;;;;;;28.40;90.20;;;;;;5046165;28;19943;-41
2022/11/11 15:21:18;;;;;;;;;;;28.40;90.30;;;;;;5062392;28;19924;-48
2022/11/11 15:24:17;;;;;;;;;;;28.40;90.40;;;;;;5053727;28;20097;-47
2022/11/11 15:26:52;;;;;;;;;;;28.50;90.50;;;;;;5025620;28;19939;-43
2022/11/11 15:29:28;;;;;;;;;;;28.50;90.60;;;;;;5063131;28;20292;-41
2022/11/11 15:32:12;;;;;;;;;;;28.50;90.70;;;;;;5063528;28;20078;-44
2022/11/11 15:34:45;;;;;;;;;;;28.50;90.70;;;;;;5062971;28;19951;-45
2022/11/11 15:37:14;;;;;;;;;;;28.50;90.90;;;;;;5059646;28;19905;-46
2022/11/11 15:39:45;;;;;;;;;;;28.50;91.00;;;;;;5064481;28;19915;-45
2022/11/11 15:42:31;;;;;;;;;;;28.50;91.10;;;;;;5057597;28;20157;-43